createdAt,value
2022-07-30T00:00:24.624Z,13.40
2022-07-30T00:01:16.379Z,17.10
2022-07-30T00:02:15.315Z,18.50
2022-07-30T00:03:15.346Z,18.90
2022-07-30T00:04:15.371Z,19.90
2022-07-30T00:05:15.277Z,17.80
2022-07-30T00:06:15.277Z,16.90
2022-07-30T00:07:15.275Z,15.80
2022-07-30T00:08:15.255Z,13.40
2022-07-30T00:09:15.263Z,13.70
2022-07-30T00:10:15.265Z,12.90
2022-07-30T00:11:15.259Z,12.50
2022-07-30T00:12:15.232Z,12.10
2022-07-30T00:13:15.226Z,11.80
2022-07-30T00:14:15.251Z,12.50
2022-07-30T00:15:15.193Z,13.00
2022-07-30T00:16:15.241Z,12.90
2022-07-30T00:17:15.180Z,11.70
2022-07-30T00:18:15.180Z,12.30
2022-07-30T00:19:15.205Z,13.60
2022-07-30T00:20:15.172Z,12.50
2022-07-30T00:21:20.475Z,11.70
2022-07-30T00:22:16.146Z,12.20
2022-07-30T00:23:15.132Z,11.10
2022-07-30T00:24:15.148Z,11.10
2022-07-30T00:25:15.112Z,11.20
2022-07-30T00:26:15.113Z,10.10
2022-07-30T00:27:15.087Z,10.40
2022-07-30T00:28:15.080Z,9.40
2022-07-30T00:29:15.105Z,8.80
2022-07-30T00:30:15.077Z,8.40
2022-07-30T00:31:15.120Z,8.20
2022-07-30T00:32:15.093Z,8.40
2022-07-30T00:33:15.047Z,8.50
2022-07-30T00:34:15.061Z,8.90
2022-07-30T00:35:15.041Z,10.80
2022-07-30T00:36:15.019Z,11.80
2022-07-30T00:37:15.044Z,12.60
2022-07-30T00:38:15.019Z,12.30
2022-07-30T00:39:14.987Z,14.30
2022-07-30T00:40:15.004Z,15.60
2022-07-30T00:41:15.462Z,15.50
2022-07-30T00:42:15.048Z,14.20
2022-07-30T00:43:15.009Z,14.20
2022-07-30T00:44:14.982Z,15.40
2022-07-30T00:45:14.950Z,15.20
2022-07-30T00:46:15.063Z,14.90
2022-07-30T00:47:14.935Z,14.00
2022-07-30T00:48:14.946Z,12.30
2022-07-30T00:49:14.964Z,11.70
2022-07-30T00:50:14.912Z,10.70
2022-07-30T00:51:14.920Z,11.20
2022-07-30T00:52:14.888Z,10.80
2022-07-30T00:53:14.874Z,10.00
2022-07-30T00:54:14.873Z,10.90
2022-07-30T00:55:14.858Z,11.40
2022-07-30T00:56:14.855Z,10.30
2022-07-30T00:57:14.871Z,10.50
2022-07-30T00:58:14.844Z,11.60
2022-07-30T00:59:14.830Z,11.80
2022-07-30T01:00:14.821Z,11.80
2022-07-30T01:01:14.880Z,11.90
2022-07-30T01:02:14.848Z,12.00
2022-07-30T01:03:14.814Z,11.90
2022-07-30T01:04:14.826Z,12.00
2022-07-30T01:05:14.769Z,11.80
2022-07-30T01:06:14.760Z,10.80
2022-07-30T01:07:14.743Z,9.50
2022-07-30T01:08:14.747Z,9.80
2022-07-30T01:09:14.741Z,10.60
2022-07-30T01:10:14.765Z,11.30
2022-07-30T01:11:14.734Z,10.20
2022-07-30T01:12:14.711Z,11.00
2022-07-30T01:13:14.706Z,10.60
2022-07-30T01:14:14.692Z,10.00
2022-07-30T01:15:14.691Z,9.60
2022-07-30T01:16:14.724Z,10.40
2022-07-30T01:17:14.678Z,9.70
2022-07-30T01:18:14.657Z,10.30
2022-07-30T01:19:14.679Z,9.70
2022-07-30T01:20:14.637Z,9.80
2022-07-30T01:21:14.649Z,9.50
2022-07-30T01:22:14.629Z,9.40
2022-07-30T01:23:14.643Z,9.00
2022-07-30T01:24:14.615Z,9.00
2022-07-30T01:25:14.613Z,9.00
2022-07-30T01:26:14.652Z,8.10
2022-07-30T01:27:19.325Z,8.40
2022-07-30T01:28:18.611Z,7.70
2022-07-30T01:29:14.572Z,8.50
2022-07-30T01:30:14.566Z,8.00
2022-07-30T01:31:14.583Z,8.80
2022-07-30T01:32:14.560Z,10.40
2022-07-30T01:33:14.547Z,10.10
2022-07-30T01:34:14.549Z,9.50
2022-07-30T01:35:14.534Z,8.40
2022-07-30T01:36:14.511Z,9.50
2022-07-30T01:37:14.509Z,9.70
2022-07-30T01:38:14.538Z,11.20
2022-07-30T01:39:14.497Z,11.60
2022-07-30T01:40:14.533Z,11.60
2022-07-30T01:41:14.476Z,11.60
2022-07-30T01:42:14.482Z,10.40
2022-07-30T01:43:14.460Z,9.50
2022-07-30T01:44:14.451Z,9.20
2022-07-30T01:45:14.435Z,8.00
2022-07-30T01:46:14.517Z,9.80
2022-07-30T01:47:14.439Z,7.90
2022-07-30T01:48:14.420Z,9.50
2022-07-30T01:49:14.494Z,11.60
2022-07-30T01:50:14.397Z,12.20
2022-07-30T01:51:14.389Z,11.30
2022-07-30T01:52:14.416Z,10.20
2022-07-30T01:53:14.374Z,9.40
2022-07-30T01:54:14.366Z,10.00
2022-07-30T01:55:17.134Z,9.40
2022-07-30T01:56:16.739Z,10.70
2022-07-30T01:57:14.482Z,9.90
2022-07-30T01:58:14.343Z,11.60
2022-07-30T01:59:14.328Z,13.10
2022-07-30T02:00:14.347Z,14.40
2022-07-30T02:01:14.404Z,13.10
2022-07-30T02:02:14.332Z,10.40
2022-07-30T02:03:14.348Z,10.30
2022-07-30T02:04:14.289Z,9.30
2022-07-30T02:05:14.287Z,8.20
2022-07-30T02:06:14.298Z,8.40
2022-07-30T02:07:14.294Z,10.30
2022-07-30T02:08:14.263Z,11.20
2022-07-30T02:09:14.270Z,12.30
2022-07-30T02:10:14.260Z,13.20
2022-07-30T02:11:14.274Z,13.50
2022-07-30T02:12:14.265Z,13.20
2022-07-30T02:13:14.232Z,13.50
2022-07-30T02:14:14.207Z,14.20
2022-07-30T02:15:14.228Z,14.70
2022-07-30T02:16:14.298Z,14.10
2022-07-30T02:17:18.723Z,15.60
2022-07-30T02:18:14.188Z,16.40
2022-07-30T02:19:14.170Z,16.50
2022-07-30T02:20:14.162Z,17.70
2022-07-30T02:21:14.160Z,17.60
2022-07-30T02:22:14.186Z,17.00
2022-07-30T02:23:14.147Z,17.20
2022-07-30T02:24:14.139Z,16.70
2022-07-30T02:25:14.132Z,15.80
2022-07-30T02:26:14.119Z,16.20
2022-07-30T02:27:14.116Z,16.80
2022-07-30T02:28:14.126Z,16.20
2022-07-30T02:29:14.105Z,14.60
2022-07-30T02:30:14.087Z,14.50
2022-07-30T02:31:17.295Z,12.90
2022-07-30T02:32:14.084Z,12.60
2022-07-30T02:33:14.053Z,12.30
2022-07-30T02:34:14.060Z,11.90
2022-07-30T02:35:14.064Z,14.50
2022-07-30T02:36:14.029Z,17.50
2022-07-30T02:37:14.052Z,16.30
2022-07-30T02:38:14.134Z,17.30
2022-07-30T02:39:14.010Z,19.30
2022-07-30T02:40:14.011Z,17.00
2022-07-30T02:41:13.995Z,20.00
2022-07-30T02:42:14.017Z,20.20
2022-07-30T02:43:13.979Z,21.60
2022-07-30T02:44:13.993Z,20.40
2022-07-30T02:45:13.953Z,17.80
2022-07-30T02:46:13.968Z,16.60
2022-07-30T02:47:14.074Z,16.60
2022-07-30T02:48:34.212Z,17.80
2022-07-30T02:49:14.961Z,18.00
2022-07-30T02:50:13.925Z,17.40
2022-07-30T02:51:13.913Z,17.80
2022-07-30T02:52:13.912Z,17.00
2022-07-30T02:53:13.901Z,16.90
2022-07-30T02:54:13.920Z,15.90
2022-07-30T02:55:13.897Z,17.20
2022-07-30T02:56:13.885Z,16.70
2022-07-30T02:57:13.870Z,16.50
2022-07-30T02:58:13.908Z,14.60
2022-07-30T02:59:13.849Z,15.60
2022-07-30T03:00:13.865Z,15.60
2022-07-30T03:01:13.861Z,15.50
2022-07-30T03:02:14.746Z,13.70
2022-07-30T03:03:13.832Z,14.20
2022-07-30T03:04:13.813Z,15.80
2022-07-30T03:05:13.830Z,18.60
2022-07-30T03:06:13.851Z,18.20
2022-07-30T03:07:13.795Z,17.90
2022-07-30T03:08:13.786Z,18.20
2022-07-30T03:09:16.871Z,18.00
2022-07-30T03:10:13.786Z,19.20
2022-07-30T03:11:13.771Z,18.50
2022-07-30T03:12:13.775Z,19.40
2022-07-30T03:13:13.746Z,20.40
2022-07-30T03:14:13.732Z,23.10
2022-07-30T03:15:13.729Z,24.00
2022-07-30T03:16:13.791Z,25.90
2022-07-30T03:17:13.712Z,29.50
2022-07-30T03:18:13.731Z,29.50
2022-07-30T03:19:13.714Z,31.50
2022-07-30T03:20:14.521Z,35.40
2022-07-30T03:21:13.687Z,28.30
2022-07-30T03:22:13.731Z,30.30
2022-07-30T03:23:13.666Z,33.40
2022-07-30T03:24:13.720Z,37.70
2022-07-30T03:25:13.655Z,39.40
2022-07-30T03:26:14.363Z,38.90
2022-07-30T03:27:13.645Z,40.40
2022-07-30T03:28:13.631Z,36.20
2022-07-30T03:29:13.621Z,38.40
2022-07-30T03:30:13.634Z,41.90
2022-07-30T03:31:13.669Z,41.80
2022-07-30T03:32:15.037Z,46.40
2022-07-30T03:33:13.597Z,50.70
2022-07-30T03:34:13.585Z,48.70
2022-07-30T03:35:17.090Z,46.10
2022-07-30T03:36:13.584Z,49.40
2022-07-30T03:37:13.555Z,53.00
2022-07-30T03:38:13.547Z,52.90
2022-07-30T03:39:13.605Z,55.70
2022-07-30T03:40:13.525Z,58.20
2022-07-30T03:41:13.521Z,57.40
2022-07-30T03:42:13.558Z,51.30
2022-07-30T03:43:32.504Z,57.00
2022-07-30T03:44:14.509Z,49.30
2022-07-30T03:45:13.491Z,54.30
2022-07-30T03:46:13.500Z,47.80
2022-07-30T03:47:13.477Z,43.60
2022-07-30T03:48:13.491Z,45.80
2022-07-30T03:49:13.488Z,43.50
2022-07-30T03:50:13.459Z,45.10
2022-07-30T03:51:13.450Z,47.80
2022-07-30T03:52:13.439Z,50.90
2022-07-30T03:53:13.439Z,49.60
2022-07-30T03:54:13.953Z,42.70
2022-07-30T03:55:13.501Z,46.20
2022-07-30T03:56:13.436Z,46.30
2022-07-30T03:57:15.311Z,43.60
2022-07-30T03:58:14.400Z,54.80
2022-07-30T03:59:13.383Z,50.90
2022-07-30T04:00:13.375Z,48.90
2022-07-30T04:01:13.400Z,49.90
2022-07-30T04:02:13.424Z,57.00
2022-07-30T04:03:13.946Z,51.80
2022-07-30T04:04:13.373Z,52.90
2022-07-30T04:05:13.356Z,48.40
2022-07-30T04:06:13.334Z,59.70
2022-07-30T04:07:13.322Z,51.00
2022-07-30T04:08:13.323Z,58.00
2022-07-30T04:09:13.302Z,52.00
2022-07-30T04:10:13.347Z,54.50
2022-07-30T04:11:13.303Z,55.30
2022-07-30T04:12:13.295Z,49.10
2022-07-30T04:13:13.291Z,52.60
2022-07-30T04:14:13.269Z,52.60
2022-07-30T04:16:36.981Z,48.60
2022-07-30T04:16:39.018Z,44.40
2022-07-30T04:17:14.309Z,45.80
2022-07-30T04:18:13.251Z,43.90
2022-07-30T04:19:13.241Z,41.30
2022-07-30T04:20:17.736Z,39.50
2022-07-30T04:21:16.075Z,37.10
2022-07-30T04:22:13.204Z,34.20
2022-07-30T04:23:13.194Z,37.50
2022-07-30T04:24:13.184Z,34.00
2022-07-30T04:25:20.405Z,35.30
2022-07-30T04:26:14.173Z,35.40
2022-07-30T04:27:13.174Z,33.20
2022-07-30T04:28:13.159Z,32.30
2022-07-30T04:29:16.089Z,33.80
2022-07-30T04:30:14.163Z,32.60
2022-07-30T04:31:13.216Z,31.80
2022-07-30T04:32:13.154Z,31.30
2022-07-30T04:33:13.118Z,33.80
2022-07-30T04:34:13.101Z,37.40
2022-07-30T04:35:13.096Z,35.70
2022-07-30T04:36:16.438Z,40.50
2022-07-30T04:37:13.078Z,38.40
2022-07-30T04:38:13.091Z,38.20
2022-07-30T04:39:13.070Z,33.20
2022-07-30T04:40:13.048Z,35.30
2022-07-30T04:41:13.046Z,36.80
2022-07-30T04:42:13.038Z,33.40
2022-07-30T04:43:13.041Z,37.00
2022-07-30T04:44:13.044Z,37.20
2022-07-30T04:45:13.906Z,34.60
2022-07-30T04:46:13.036Z,29.70
2022-07-30T04:47:13.009Z,25.80
2022-07-30T04:48:12.995Z,31.20
2022-07-30T04:49:13.182Z,29.20
2022-07-30T04:50:12.979Z,29.40
2022-07-30T04:51:12.968Z,31.50
2022-07-30T04:52:12.958Z,29.30
2022-07-30T04:53:12.957Z,30.00
2022-07-30T04:54:15.690Z,27.80
2022-07-30T04:55:12.975Z,26.30
2022-07-30T04:56:12.939Z,28.70
2022-07-30T04:57:12.918Z,30.90
2022-07-30T04:58:12.916Z,27.80
2022-07-30T04:59:12.915Z,31.70
2022-07-30T05:00:12.906Z,31.40
2022-07-30T05:01:12.941Z,33.80
2022-07-30T05:02:12.914Z,32.80
2022-07-30T05:03:12.875Z,33.50
2022-07-30T05:04:12.868Z,31.80
2022-07-30T05:05:12.917Z,29.70
2022-07-30T05:06:12.864Z,27.80
2022-07-30T05:07:12.873Z,30.70
2022-07-30T05:08:12.838Z,35.10
2022-07-30T05:09:12.828Z,37.50
2022-07-30T05:10:12.822Z,30.70
2022-07-30T05:11:12.813Z,39.20
2022-07-30T05:12:12.854Z,31.80
2022-07-30T05:13:13.108Z,32.90
2022-07-30T05:14:12.785Z,36.70
2022-07-30T05:15:12.780Z,29.50
2022-07-30T05:16:12.834Z,29.70
2022-07-30T05:17:12.759Z,31.80
2022-07-30T05:18:12.791Z,32.70
2022-07-30T05:19:12.748Z,32.90
2022-07-30T05:20:12.754Z,29.60
2022-07-30T05:21:12.726Z,32.70
2022-07-30T05:22:12.733Z,32.70
2022-07-30T05:23:12.752Z,33.90
2022-07-30T05:24:12.727Z,29.60
2022-07-30T05:25:15.830Z,34.10
2022-07-30T05:26:12.699Z,33.70
2022-07-30T05:27:12.689Z,30.10
2022-07-30T05:28:12.712Z,31.20
2022-07-30T05:29:19.558Z,28.40
2022-07-30T05:30:13.657Z,29.20
2022-07-30T05:31:12.679Z,26.90
2022-07-30T05:32:12.640Z,35.50
2022-07-30T05:33:14.439Z,32.10
2022-07-30T05:34:12.633Z,40.40
2022-07-30T05:35:12.612Z,32.10
2022-07-30T05:36:12.600Z,37.90
2022-07-30T05:37:12.617Z,32.20
2022-07-30T05:38:12.581Z,30.60
2022-07-30T05:39:12.587Z,30.20
2022-07-30T05:40:12.619Z,36.00
2022-07-30T05:41:19.167Z,34.70
2022-07-30T05:42:13.555Z,38.20
2022-07-30T05:43:12.550Z,37.20
2022-07-30T05:44:12.534Z,36.50
2022-07-30T05:45:12.533Z,40.30
2022-07-30T05:46:12.586Z,39.60
2022-07-30T05:47:12.515Z,41.30
2022-07-30T05:48:12.507Z,36.80
2022-07-30T05:49:12.566Z,31.30
2022-07-30T05:50:12.494Z,29.50
2022-07-30T05:51:12.506Z,30.20
2022-07-30T05:52:12.493Z,32.10
2022-07-30T05:53:12.477Z,30.20
2022-07-30T05:54:12.469Z,29.80
2022-07-30T05:55:12.460Z,29.80
2022-07-30T05:56:12.450Z,29.80
2022-07-30T05:57:12.559Z,31.10
2022-07-30T05:58:12.457Z,28.50
2022-07-30T05:59:12.497Z,35.20
2022-07-30T06:00:12.421Z,40.70
2022-07-30T06:01:12.436Z,34.50
2022-07-30T06:02:12.411Z,31.00
2022-07-30T06:03:12.393Z,39.30
2022-07-30T06:04:12.438Z,34.30
2022-07-30T06:05:12.427Z,32.90
2022-07-30T06:06:12.373Z,31.50
2022-07-30T06:07:12.355Z,34.00
2022-07-30T06:08:12.351Z,34.00
2022-07-30T06:09:12.345Z,32.60
2022-07-30T06:10:12.364Z,29.70
2022-07-30T06:11:12.333Z,27.60
2022-07-30T06:12:12.324Z,31.50
2022-07-30T06:13:12.307Z,32.30
2022-07-30T06:14:12.297Z,31.80
2022-07-30T06:15:12.353Z,29.50
2022-07-30T06:16:12.338Z,28.20
2022-07-30T06:17:12.281Z,27.80
2022-07-30T06:18:12.268Z,24.80
2022-07-30T06:19:19.747Z,27.30
2022-07-30T06:20:13.251Z,30.20
2022-07-30T06:21:12.238Z,27.00
2022-07-30T06:22:12.285Z,26.50
2022-07-30T06:23:12.231Z,24.10
2022-07-30T06:24:12.229Z,26.80
2022-07-30T06:25:12.207Z,30.10
2022-07-30T06:26:12.183Z,26.80
2022-07-30T06:27:12.177Z,27.90
2022-07-30T06:28:35.192Z,27.40
2022-07-30T06:29:13.318Z,29.10
2022-07-30T06:30:12.157Z,28.20
2022-07-30T06:31:12.198Z,24.90
2022-07-30T06:32:12.155Z,24.00
2022-07-30T06:33:12.161Z,26.80
2022-07-30T06:34:12.138Z,31.20
2022-07-30T06:35:12.129Z,21.30
2022-07-30T06:36:14.009Z,20.30
2022-07-30T06:37:12.190Z,22.40
2022-07-30T06:38:12.094Z,26.00
2022-07-30T06:39:12.109Z,28.60
2022-07-30T06:40:12.095Z,19.90
2022-07-30T06:41:12.066Z,26.10
2022-07-30T06:42:12.055Z,26.20
2022-07-30T06:43:12.054Z,24.30
2022-07-30T06:44:12.043Z,25.40
2022-07-30T06:45:12.046Z,21.70
2022-07-30T06:46:12.099Z,24.20
2022-07-30T06:47:12.363Z,24.40
2022-07-30T06:48:12.021Z,23.40
2022-07-30T06:49:12.138Z,21.60
2022-07-30T06:50:11.997Z,23.10
2022-07-30T06:51:12.093Z,22.30
2022-07-30T06:52:16.946Z,23.50
2022-07-30T06:53:12.994Z,25.30
2022-07-30T06:54:12.483Z,22.90
2022-07-30T06:55:11.998Z,23.40
2022-07-30T06:56:11.940Z,22.40
2022-07-30T06:57:11.945Z,22.40
2022-07-30T06:58:11.923Z,23.80
2022-07-30T06:59:11.906Z,22.90
2022-07-30T07:00:11.906Z,21.50
2022-07-30T07:01:11.935Z,21.00
2022-07-30T07:02:11.906Z,21.10
2022-07-30T07:03:12.104Z,22.50
2022-07-30T07:04:11.906Z,23.80
2022-07-30T07:05:11.874Z,24.70
2022-07-30T07:06:11.857Z,24.90
2022-07-30T07:07:12.537Z,22.80
2022-07-30T07:08:11.940Z,24.20
2022-07-30T07:09:11.872Z,23.00
2022-07-30T07:10:11.830Z,21.50
2022-07-30T07:11:11.854Z,21.20
2022-07-30T07:12:11.810Z,22.30
2022-07-30T07:13:11.792Z,20.90
2022-07-30T07:14:11.796Z,20.50
2022-07-30T07:15:11.797Z,19.80
2022-07-30T07:16:11.769Z,21.90
2022-07-30T07:17:11.780Z,22.20
2022-07-30T07:18:11.753Z,20.60
2022-07-30T07:19:13.530Z,19.20
2022-07-30T07:20:12.758Z,19.10
2022-07-30T07:21:11.722Z,17.50
2022-07-30T07:22:11.719Z,17.50
2022-07-30T07:23:12.458Z,19.50
2022-07-30T07:24:11.706Z,18.50
2022-07-30T07:25:11.709Z,18.10
2022-07-30T07:26:11.707Z,18.00
2022-07-30T07:27:15.501Z,18.00
2022-07-30T07:28:13.541Z,17.30
2022-07-30T07:29:11.671Z,18.00
2022-07-30T07:30:11.647Z,18.00
2022-07-30T07:31:11.696Z,18.20
2022-07-30T07:32:12.652Z,17.90
2022-07-30T07:33:11.623Z,17.60
2022-07-30T07:34:16.817Z,16.20
2022-07-30T07:35:12.615Z,16.20
2022-07-30T07:36:11.603Z,16.10
2022-07-30T07:37:11.613Z,17.20
2022-07-30T07:38:11.592Z,15.80
2022-07-30T07:39:12.924Z,16.10
2022-07-30T07:40:11.569Z,17.10
2022-07-30T07:41:11.587Z,17.10
2022-07-30T07:42:11.557Z,16.20
2022-07-30T07:43:11.604Z,16.30
2022-07-30T07:44:11.549Z,15.80
2022-07-30T07:45:11.526Z,15.50
2022-07-30T07:46:11.617Z,15.60
2022-07-30T07:47:11.509Z,15.30
2022-07-30T07:48:11.531Z,15.10
2022-07-30T07:49:11.555Z,15.30
2022-07-30T07:50:12.431Z,15.30
2022-07-30T07:51:11.479Z,15.80
2022-07-30T07:52:11.488Z,14.30
2022-07-30T07:53:11.491Z,16.70
2022-07-30T07:54:21.145Z,16.40
2022-07-30T07:55:12.454Z,16.50
2022-07-30T07:56:11.438Z,15.10
2022-07-30T07:57:11.633Z,15.20
2022-07-30T07:58:11.423Z,15.20
2022-07-30T07:59:11.469Z,15.40
2022-07-30T08:00:11.447Z,14.80
2022-07-30T08:01:11.488Z,15.20
2022-07-30T08:02:11.474Z,14.70
2022-07-30T08:03:11.382Z,15.70
2022-07-30T08:04:11.378Z,15.30
2022-07-30T08:05:11.368Z,16.70
2022-07-30T08:06:15.003Z,15.20
2022-07-30T08:07:12.748Z,15.20
2022-07-30T08:08:11.350Z,14.90
2022-07-30T08:09:11.336Z,14.90
2022-07-30T08:10:11.336Z,14.60
2022-07-30T08:11:11.917Z,15.20
2022-07-30T08:12:11.381Z,15.20
2022-07-30T08:13:52.376Z,15.60
2022-07-30T08:14:12.307Z,15.20
2022-07-30T08:15:11.302Z,15.60
2022-07-30T08:16:12.073Z,14.90
2022-07-30T08:17:11.413Z,15.20
2022-07-30T08:18:11.305Z,15.30
2022-07-30T08:19:11.282Z,15.20
2022-07-30T08:20:11.262Z,14.90
2022-07-30T08:21:11.258Z,14.60
2022-07-30T08:22:11.243Z,15.10
2022-07-30T08:23:12.131Z,15.70
2022-07-30T08:24:11.253Z,15.00
2022-07-30T08:25:11.218Z,15.60
2022-07-30T08:26:11.210Z,14.10
2022-07-30T08:27:18.041Z,14.60
2022-07-30T08:28:36.175Z,14.80
2022-07-30T08:29:17.004Z,15.10
2022-07-30T08:30:12.169Z,14.70
2022-07-30T08:31:11.174Z,14.80
2022-07-30T08:32:11.167Z,14.60
2022-07-30T08:33:11.156Z,14.70
2022-07-30T08:34:11.165Z,15.10
2022-07-30T08:35:11.163Z,15.30
2022-07-30T08:36:11.133Z,14.80
2022-07-30T08:37:11.189Z,15.60
2022-07-30T08:38:11.133Z,14.80
2022-07-30T08:39:12.008Z,15.20
2022-07-30T08:40:11.303Z,14.30
2022-07-30T08:41:11.087Z,13.50
2022-07-30T08:42:11.074Z,13.30
2022-07-30T08:43:11.160Z,13.20
2022-07-30T08:44:12.774Z,12.50
2022-07-30T08:45:11.321Z,13.80
2022-07-30T08:46:11.083Z,12.60
2022-07-30T08:47:11.126Z,12.80
2022-07-30T08:48:14.905Z,13.30
2022-07-30T08:49:12.033Z,13.50
2022-07-30T08:50:11.026Z,11.10
2022-07-30T08:51:11.020Z,11.90
2022-07-30T08:52:11.087Z,12.60
2022-07-30T08:53:11.001Z,12.10
2022-07-30T08:54:11.004Z,12.40
2022-07-30T08:55:10.973Z,12.10
2022-07-30T08:56:10.965Z,11.60
2022-07-30T08:57:10.980Z,10.80
2022-07-30T08:58:10.990Z,10.60
2022-07-30T08:59:10.937Z,10.30
2022-07-30T09:00:10.960Z,11.10
2022-07-30T09:01:10.930Z,10.60
2022-07-30T09:02:12.811Z,9.90
2022-07-30T09:03:10.933Z,9.00
2022-07-30T09:04:10.915Z,10.30
2022-07-30T09:05:10.898Z,9.40
2022-07-30T09:06:10.904Z,9.80
2022-07-30T09:07:10.883Z,9.70
2022-07-30T09:08:10.880Z,8.40
2022-07-30T09:09:10.900Z,8.40
2022-07-30T09:10:10.900Z,8.20
2022-07-30T09:11:10.843Z,8.80
2022-07-30T09:12:10.892Z,9.10
2022-07-30T09:13:10.830Z,9.00
2022-07-30T09:14:10.860Z,7.90
2022-07-30T09:15:10.809Z,7.20
2022-07-30T09:16:10.842Z,7.40
2022-07-30T09:17:10.795Z,7.60
2022-07-30T09:18:11.503Z,8.60
2022-07-30T09:19:10.800Z,8.20
2022-07-30T09:20:10.813Z,7.70
2022-07-30T09:21:10.778Z,7.20
2022-07-30T09:22:10.946Z,7.40
2022-07-30T09:23:10.757Z,8.00
2022-07-30T09:24:10.914Z,7.00
2022-07-30T09:25:10.739Z,7.20
2022-07-30T09:26:10.789Z,7.90
2022-07-30T09:27:10.839Z,8.30
2022-07-30T09:28:16.261Z,7.40
2022-07-30T09:29:11.696Z,7.50
2022-07-30T09:30:11.320Z,7.40
2022-07-30T09:31:10.686Z,7.80
2022-07-30T09:32:10.683Z,8.10
2022-07-30T09:33:10.714Z,7.20
2022-07-30T09:34:10.777Z,7.20
2022-07-30T09:35:10.645Z,8.20
2022-07-30T09:36:10.844Z,7.40
2022-07-30T09:37:10.653Z,7.80
2022-07-30T09:38:10.822Z,8.00
2022-07-30T09:39:10.609Z,7.60
2022-07-30T09:40:10.717Z,6.80
2022-07-30T09:41:23.058Z,8.40
2022-07-30T09:42:11.594Z,7.70
2022-07-30T09:43:10.589Z,7.30
2022-07-30T09:44:10.607Z,7.30
2022-07-30T09:45:10.600Z,6.90
2022-07-30T09:46:10.593Z,6.90
2022-07-30T09:47:10.556Z,6.80
2022-07-30T09:48:10.553Z,7.00
2022-07-30T09:49:10.594Z,7.30
2022-07-30T09:50:10.576Z,6.10
2022-07-30T09:51:15.670Z,6.30
2022-07-30T09:52:11.511Z,5.70
2022-07-30T09:53:11.888Z,6.40
2022-07-30T09:54:10.596Z,6.50
2022-07-30T09:55:10.558Z,6.50
2022-07-30T09:56:10.498Z,6.70
2022-07-30T09:57:22.839Z,7.20
2022-07-30T09:58:12.814Z,6.50
2022-07-30T09:59:18.553Z,6.10
2022-07-30T10:00:11.475Z,6.20
2022-07-30T10:01:10.455Z,5.70
2022-07-30T10:02:10.532Z,6.10
2022-07-30T10:03:12.704Z,5.70
2022-07-30T10:04:11.443Z,5.60
2022-07-30T10:05:10.475Z,5.60
2022-07-30T10:06:11.644Z,6.00
2022-07-30T10:07:10.396Z,6.10
2022-07-30T10:08:16.674Z,6.20
2022-07-30T10:09:14.011Z,5.70
2022-07-30T10:10:10.418Z,5.80
2022-07-30T10:11:10.359Z,6.10
2022-07-30T10:12:10.992Z,5.50
2022-07-30T10:13:10.331Z,6.10
2022-07-30T10:14:10.379Z,6.50
2022-07-30T10:15:10.435Z,5.90
2022-07-30T10:16:10.349Z,5.40
2022-07-30T10:17:10.324Z,5.30
2022-07-30T10:18:10.346Z,5.10
2022-07-30T10:19:13.802Z,5.10
2022-07-30T10:20:11.299Z,5.70
2022-07-30T10:21:10.319Z,5.60
2022-07-30T10:22:10.276Z,5.30
2022-07-30T10:23:10.267Z,5.30
2022-07-30T10:24:11.291Z,5.10
2022-07-30T10:25:10.237Z,5.50
2022-07-30T10:26:11.275Z,5.10
2022-07-30T10:27:10.258Z,5.20
2022-07-30T10:28:10.224Z,5.30
2022-07-30T10:29:12.804Z,5.00
2022-07-30T10:30:12.392Z,5.30
2022-07-30T10:31:46.904Z,5.00
2022-07-30T10:32:11.220Z,5.10
2022-07-30T10:33:34.259Z,5.00
2022-07-30T10:34:11.689Z,5.00
2022-07-30T10:35:10.172Z,4.70
2022-07-30T10:36:10.174Z,4.70
2022-07-30T10:37:10.146Z,4.40
2022-07-30T10:38:13.991Z,4.40
2022-07-30T10:39:10.153Z,5.00
2022-07-30T10:40:10.134Z,4.60
2022-07-30T10:41:10.121Z,4.30
2022-07-30T10:42:10.120Z,4.50
2022-07-30T10:43:10.102Z,4.30
2022-07-30T10:44:10.181Z,4.10
2022-07-30T10:45:10.142Z,4.40
2022-07-30T10:46:20.140Z,4.30
2022-07-30T10:47:11.077Z,3.90
2022-07-30T10:48:10.205Z,4.00
2022-07-30T10:49:11.807Z,4.60
2022-07-30T10:50:11.840Z,3.90
2022-07-30T10:51:10.033Z,3.80
2022-07-30T10:52:11.072Z,4.00
2022-07-30T10:53:10.022Z,4.20
2022-07-30T10:54:11.866Z,4.10
2022-07-30T10:55:10.029Z,4.60
2022-07-30T10:56:10.022Z,4.40
2022-07-30T10:57:09.989Z,4.10
2022-07-30T10:58:10.023Z,4.10
2022-07-30T10:59:10.028Z,4.00
2022-07-30T11:00:09.997Z,4.10
2022-07-30T11:01:18.373Z,3.80
2022-07-30T11:02:11.005Z,4.10
2022-07-30T11:03:14.933Z,4.30
2022-07-30T11:04:11.569Z,4.20
2022-07-30T11:05:10.583Z,4.10
2022-07-30T11:06:09.917Z,3.90
2022-07-30T11:07:11.120Z,4.30
2022-07-30T11:08:09.980Z,4.20
2022-07-30T11:09:09.894Z,4.20
2022-07-30T11:10:17.400Z,4.00
2022-07-30T11:11:19.590Z,4.00
2022-07-30T11:12:15.718Z,4.50
2022-07-30T11:13:10.902Z,4.10
2022-07-30T11:14:09.861Z,4.20
2022-07-30T11:15:19.095Z,4.60
2022-07-30T11:16:10.860Z,4.10
2022-07-30T11:17:09.836Z,4.30
2022-07-30T11:18:12.220Z,4.30
2022-07-30T11:19:55.988Z,4.20
2022-07-30T11:20:11.892Z,4.20
2022-07-30T11:21:09.811Z,4.30
2022-07-30T11:22:09.797Z,4.40
2022-07-30T11:23:09.799Z,5.00
2022-07-30T11:24:09.785Z,4.30
2022-07-30T11:25:13.203Z,4.50
2022-07-30T11:26:14.100Z,3.80
2022-07-30T11:27:09.754Z,4.20
2022-07-30T11:28:09.748Z,3.80
2022-07-30T11:29:09.791Z,4.20
2022-07-30T11:30:09.730Z,4.30
2022-07-30T11:31:10.455Z,4.10
2022-07-30T11:32:09.998Z,4.10
2022-07-30T11:33:10.635Z,4.00
2022-07-30T11:34:09.700Z,3.90
2022-07-30T11:35:09.777Z,4.20
2022-07-30T11:36:10.835Z,4.10
2022-07-30T11:37:19.226Z,3.60
2022-07-30T11:38:10.767Z,4.10
2022-07-30T11:39:09.663Z,4.20
2022-07-30T11:40:09.696Z,3.90
2022-07-30T11:41:09.688Z,4.30
2022-07-30T11:42:09.632Z,4.40
2022-07-30T11:43:09.668Z,3.90
2022-07-30T11:44:09.694Z,3.90
2022-07-30T11:45:09.620Z,4.20
2022-07-30T11:46:10.252Z,4.40
2022-07-30T11:47:09.604Z,4.30
2022-07-30T11:48:09.583Z,4.00
2022-07-30T11:49:09.625Z,3.80
2022-07-30T11:50:09.622Z,4.90
2022-07-30T11:51:09.575Z,4.30
2022-07-30T11:52:09.565Z,5.50
2022-07-30T11:53:09.548Z,3.90
2022-07-30T11:54:09.547Z,4.10
2022-07-30T11:55:09.611Z,4.20
2022-07-30T11:56:09.551Z,4.00
2022-07-30T11:57:09.519Z,4.40
2022-07-30T11:58:09.514Z,4.20
2022-07-30T11:59:09.503Z,4.30
2022-07-30T12:00:09.538Z,4.00
2022-07-30T12:01:09.690Z,4.10
2022-07-30T12:02:09.503Z,4.60
2022-07-30T12:03:09.477Z,4.70
2022-07-30T12:04:09.470Z,4.60
2022-07-30T12:05:09.466Z,4.30
2022-07-30T12:06:09.466Z,4.10
2022-07-30T12:07:09.447Z,4.10
2022-07-30T12:08:16.286Z,4.40
2022-07-30T12:09:10.467Z,4.40
2022-07-30T12:10:10.147Z,4.50
2022-07-30T12:11:09.413Z,4.60
2022-07-30T12:12:09.410Z,4.20
2022-07-30T12:13:09.442Z,4.40
2022-07-30T12:14:10.134Z,4.60
2022-07-30T12:15:09.424Z,4.40
2022-07-30T12:16:09.403Z,4.60
2022-07-30T12:17:15.048Z,4.10
2022-07-30T12:18:25.753Z,4.30
2022-07-30T12:19:10.674Z,4.20
2022-07-30T12:20:09.417Z,4.20
2022-07-30T12:21:09.340Z,4.20
2022-07-30T12:22:09.335Z,4.10
2022-07-30T12:23:09.512Z,4.60
2022-07-30T12:24:09.322Z,3.90
2022-07-30T12:25:09.324Z,4.40
2022-07-30T12:26:09.329Z,4.30
2022-07-30T12:27:09.405Z,4.50
2022-07-30T12:28:09.290Z,4.20
2022-07-30T12:29:09.301Z,4.50
2022-07-30T12:30:09.313Z,4.30
2022-07-30T12:31:09.288Z,4.40
2022-07-30T12:32:09.300Z,4.80
2022-07-30T12:33:09.269Z,4.40
2022-07-30T12:34:09.240Z,4.10
2022-07-30T12:35:09.278Z,4.60
2022-07-30T12:36:09.257Z,4.10
2022-07-30T12:37:09.243Z,4.10
2022-07-30T12:38:09.206Z,4.40
2022-07-30T12:39:09.202Z,3.80
2022-07-30T12:40:14.607Z,4.20
2022-07-30T12:41:09.190Z,4.40
2022-07-30T12:42:09.179Z,4.50
2022-07-30T12:43:13.738Z,4.40
2022-07-30T12:44:09.162Z,4.20
2022-07-30T12:45:09.165Z,4.40
2022-07-30T12:46:14.512Z,4.50
2022-07-30T12:47:10.147Z,4.40
2022-07-30T12:48:09.135Z,3.90
2022-07-30T12:49:22.430Z,4.20
2022-07-30T12:50:10.268Z,4.70
2022-07-30T12:51:09.125Z,4.20
2022-07-30T12:52:13.305Z,4.10
2022-07-30T12:53:10.088Z,4.00
2022-07-30T12:54:09.076Z,4.10
2022-07-30T12:55:09.150Z,4.30
2022-07-30T12:56:09.071Z,4.90
2022-07-30T12:57:09.075Z,4.60
2022-07-30T12:58:09.306Z,4.40
2022-07-30T12:59:09.046Z,4.80
2022-07-30T13:00:09.115Z,4.60
2022-07-30T13:01:09.087Z,5.00